sensor_id;sensor_type;location;lat;lon;timestamp;pressure;altitude;pressure_sealevel;temperature;humidity
47366;BME280;33105;47.964;7.982;2023-07-28T00:01:52;96074.78;;;16.45;89.59
47366;BME280;33105;47.964;7.982;2023-07-28T00:04:54;96073.16;;;16.44;89.31
47366;BME280;33105;47.964;7.982;2023-07-28T00:07:59;96067.13;;;16.64;87.89
47366;BME280;33105;47.964;7.982;2023-07-28T00:11:00;96074.16;;;16.48;89.46
47366;BME280;33105;47.964;7.982;2023-07-28T00:14:01;96067.19;;;16.50;88.84
47366;BME280;33105;47.964;7.982;2023-07-28T00:17:03;96071.25;;;16.53;89.28
47366;BME280;33105;47.964;7.982;2023-07-28T00:20:05;96067.88;;;16.56;88.97
47366;BME280;33105;47.964;7.982;2023-07-28T00:23:07;96072.25;;;16.57;88.77
47366;BME280;33105;47.964;7.982;2023-07-28T00:26:10;96063.22;;;16.65;88.13
47366;BME280;33105;47.964;7.982;2023-07-28T00:29:26;96076.81;;;16.61;88.78
47366;BME280;33105;47.964;7.982;2023-07-28T00:33:38;96071.59;;;16.60;88.97
47366;BME280;33105;47.964;7.982;2023-07-28T00:36:46;96064.34;;;16.64;88.68
47366;BME280;33105;47.964;7.982;2023-07-28T00:40:09;96056.63;;;16.75;87.80
47366;BME280;33105;47.964;7.982;2023-07-28T00:48:17;96058.88;;;16.73;87.55
47366;BME280;33105;47.964;7.982;2023-07-28T00:55:42;96066.81;;;16.65;88.19
47366;BME280;33105;47.964;7.982;2023-07-28T00:59:36;96072.56;;;16.55;88.59
47366;BME280;33105;47.964;7.982;2023-07-28T01:44:23;96083.03;;;16.45;90.73
47366;BME280;33105;47.964;7.982;2023-07-28T01:47:28;96091.19;;;16.50;90.49
47366;BME280;33105;47.964;7.982;2023-07-28T02:01:59;96107.91;;;16.53;90.74
47366;BME280;33105;47.964;7.982;2023-07-28T02:05:04;96110.00;;;16.48;91.06
47366;BME280;33105;47.964;7.982;2023-07-28T02:08:08;96114.09;;;16.59;90.47
47366;BME280;33105;47.964;7.982;2023-07-28T02:11:22;96124.00;;;16.60;90.59
47366;BME280;33105;47.964;7.982;2023-07-28T02:15:41;96116.50;;;16.74;89.99
47366;BME280;33105;47.964;7.982;2023-07-28T02:29:00;96129.41;;;16.65;91.10
47366;BME280;33105;47.964;7.982;2023-07-28T02:32:55;96124.91;;;16.69;91.10
47366;BME280;33105;47.964;7.982;2023-07-28T02:36:15;96130.00;;;16.62;91.44
47366;BME280;33105;47.964;7.982;2023-07-28T02:39:17;96126.03;;;16.68;91.40
47366;BME280;33105;47.964;7.982;2023-07-28T02:42:21;96131.47;;;16.59;91.77
47366;BME280;33105;47.964;7.982;2023-07-28T02:45:26;96139.91;;;16.63;91.96
47366;BME280;33105;47.964;7.982;2023-07-28T02:48:41;96147.38;;;16.62;91.91
47366;BME280;33105;47.964;7.982;2023-07-28T02:51:46;96143.81;;;16.62;92.06
47366;BME280;33105;47.964;7.982;2023-07-28T02:54:54;96149.31;;;16.84;91.04
47366;BME280;33105;47.964;7.982;2023-07-28T02:58:16;96146.09;;;16.82;91.07
47366;BME280;33105;47.964;7.982;2023-07-28T03:02:06;96147.78;;;17.00;89.86
47366;BME280;33105;47.964;7.982;2023-07-28T03:05:10;96144.59;;;16.85;91.33
47366;BME280;33105;47.964;7.982;2023-07-28T03:08:45;96150.03;;;16.98;89.83
47366;BME280;33105;47.964;7.982;2023-07-28T03:12:30;96145.16;;;16.95;89.86
47366;BME280;33105;47.964;7.982;2023-07-28T03:15:46;96148.31;;;17.11;89.32
47366;BME280;33105;47.964;7.982;2023-07-28T03:19:30;96145.66;;;16.97;89.97
47366;BME280;33105;47.964;7.982;2023-07-28T03:23:04;96141.69;;;16.81;91.90
47366;BME280;33105;47.964;7.982;2023-07-28T03:31:41;96144.44;;;16.59;93.40
47366;BME280;33105;47.964;7.982;2023-07-28T03:34:54;96142.56;;;16.68;93.29
47366;BME280;33105;47.964;7.982;2023-07-28T03:37:56;96134.69;;;16.75;93.04
47366;BME280;33105;47.964;7.982;2023-07-28T03:41:08;96132.75;;;16.84;92.30
47366;BME280;33105;47.964;7.982;2023-07-28T03:44:51;96140.41;;;16.87;91.82
47366;BME280;33105;47.964;7.982;2023-07-28T03:48:05;96136.66;;;16.83;92.24
47366;BME280;33105;47.964;7.982;2023-07-28T03:51:06;96131.63;;;16.85;91.73
47366;BME280;33105;47.964;7.982;2023-07-28T03:54:09;96129.59;;;16.69;92.93
47366;BME280;33105;47.964;7.982;2023-07-28T03:57:20;96130.31;;;16.83;92.29
47366;BME280;33105;47.964;7.982;2023-07-28T04:00:23;96131.78;;;16.80;91.74
47366;BME280;33105;47.964;7.982;2023-07-28T04:03:25;96127.53;;;16.74;92.87
47366;BME280;33105;47.964;7.982;2023-07-28T04:06:43;96133.41;;;16.81;91.78
47366;BME280;33105;47.964;7.982;2023-07-28T04:13:48;96130.81;;;16.62;93.33
47366;BME280;33105;47.964;7.982;2023-07-28T04:17:25;96128.53;;;16.56;93.95
47366;BME280;33105;47.964;7.982;2023-07-28T04:21:40;96133.69;;;16.49;93.96
47366;BME280;33105;47.964;7.982;2023-07-28T04:25:36;96128.06;;;16.85;92.43
47366;BME280;33105;47.964;7.982;2023-07-28T04:29:59;96138.88;;;16.73;92.89
47366;BME280;33105;47.964;7.982;2023-07-28T04:39:06;96131.47;;;16.82;92.96
47366;BME280;33105;47.964;7.982;2023-07-28T04:43:21;96137.50;;;16.92;90.68
47366;BME280;33105;47.964;7.982;2023-07-28T04:54:51;96137.50;;;17.23;92.26
47366;BME280;33105;47.964;7.982;2023-07-28T04:57:55;96149.19;;;17.29;92.13
47366;BME280;33105;47.964;7.982;2023-07-28T05:00:57;96148.22;;;17.25;91.91
47366;BME280;33105;47.964;7.982;2023-07-28T05:04:01;96137.81;;;17.22;91.81
47366;BME280;33105;47.964;7.982;2023-07-28T05:07:08;96149.19;;;17.29;90.61
47366;BME280;33105;47.964;7.982;2023-07-28T05:10:17;96132.53;;;17.51;89.22
47366;BME280;33105;47.964;7.982;2023-07-28T05:13:18;96147.09;;;17.91;85.68
47366;BME280;33105;47.964;7.982;2023-07-28T05:16:28;96136.69;;;18.14;82.55
47366;BME280;33105;47.964;7.982;2023-07-28T05:19:59;96154.41;;;18.13;84.97
47366;BME280;33105;47.964;7.982;2023-07-28T05:23:29;96139.13;;;18.33;81.89
47366;BME280;33105;47.964;7.982;2023-07-28T05:26:32;96152.91;;;18.59;80.11
47366;BME280;33105;47.964;7.982;2023-07-28T05:29:35;96153.06;;;18.88;79.60
47366;BME280;33105;47.964;7.982;2023-07-28T05:32:41;96155.41;;;19.16;76.58
47366;BME280;33105;47.964;7.982;2023-07-28T05:36:04;96149.94;;;19.36;76.31
47366;BME280;33105;47.964;7.982;2023-07-28T05:39:06;96161.56;;;19.30;76.72
47366;BME280;33105;47.964;7.982;2023-07-28T05:42:15;96166.06;;;19.43;75.32
47366;BME280;33105;47.964;7.982;2023-07-28T05:45:16;96155.63;;;19.40;75.66
47366;BME280;33105;47.964;7.982;2023-07-28T05:48:18;96160.19;;;19.53;75.69
47366;BME280;33105;47.964;7.982;2023-07-28T05:51:20;96160.75;;;19.67;73.79
47366;BME280;33105;47.964;7.982;2023-07-28T05:54:24;96170.13;;;19.54;75.08
47366;BME280;33105;47.964;7.982;2023-07-28T05:57:26;96173.63;;;19.63;73.66
47366;BME280;33105;47.964;7.982;2023-07-28T06:00:27;96176.94;;;19.48;76.36
47366;BME280;33105;47.964;7.982;2023-07-28T06:03:30;96180.53;;;19.49;74.55
47366;BME280;33105;47.964;7.982;2023-07-28T06:06:43;96175.50;;;19.42;74.94
47366;BME280;33105;47.964;7.982;2023-07-28T06:09:48;96183.88;;;19.25;75.90
47366;BME280;33105;47.964;7.982;2023-07-28T06:12:52;96184.28;;;19.44;75.36
47366;BME280;33105;47.964;7.982;2023-07-28T06:15:53;96198.72;;;19.29;76.29
47366;BME280;33105;47.964;7.982;2023-07-28T06:19:01;96192.06;;;19.59;75.44
47366;BME280;33105;47.964;7.982;2023-07-28T06:22:03;96200.59;;;19.54;75.24
47366;BME280;33105;47.964;7.982;2023-07-28T06:25:06;96204.03;;;19.51;75.24
47366;BME280;33105;47.964;7.982;2023-07-28T06:28:10;96209.06;;;19.49;76.45
47366;BME280;33105;47.964;7.982;2023-07-28T06:31:12;96198.78;;;19.50;78.21
47366;BME280;33105;47.964;7.982;2023-07-28T06:34:14;96200.78;;;19.32;82.21
47366;BME280;33105;47.964;7.982;2023-07-28T06:37:16;96210.44;;;19.26;83.86
47366;BME280;33105;47.964;7.982;2023-07-28T06:40:18;96206.72;;;19.22;83.45
47366;BME280;33105;47.964;7.982;2023-07-28T06:43:19;96205.06;;;19.21;81.87
47366;BME280;33105;47.964;7.982;2023-07-28T06:46:22;96205.25;;;19.16;83.01
47366;BME280;33105;47.964;7.982;2023-07-28T06:49:25;96209.34;;;19.10;81.29
47366;BME280;33105;47.964;7.982;2023-07-28T06:52:27;96207.25;;;18.89;80.37
47366;BME280;33105;47.964;7.982;2023-07-28T06:55:49;96212.16;;;18.92;81.46
47366;BME280;33105;47.964;7.982;2023-07-28T06:58:55;96218.50;;;18.84;81.57
47366;BME280;33105;47.964;7.982;2023-07-28T07:01:57;96222.19;;;19.06;80.25
47366;BME280;33105;47.964;7.982;2023-07-28T07:04:59;96229.19;;;19.12;79.34
47366;BME280;33105;47.964;7.982;2023-07-28T07:08:02;96220.22;;;19.23;78.14
47366;BME280;33105;47.964;7.982;2023-07-28T07:11:04;96228.53;;;19.15;79.52
47366;BME280;33105;47.964;7.982;2023-07-28T07:14:07;96229.28;;;19.41;76.68
47366;BME280;33105;47.964;7.982;2023-07-28T07:17:09;96234.34;;;19.30;77.76
47366;BME280;33105;47.964;7.982;2023-07-28T07:20:12;96228.03;;;19.21;80.29
47366;BME280;33105;47.964;7.982;2023-07-28T07:23:13;96224.47;;;19.21;80.32
47366;BME280;33105;47.964;7.982;2023-07-28T07:26:14;96230.31;;;19.28;80.35
47366;BME280;33105;47.964;7.982;2023-07-28T07:29:15;96233.56;;;19.30;79.86
47366;BME280;33105;47.964;7.982;2023-07-28T07:32:17;96232.75;;;19.29;80.26
47366;BME280;33105;47.964;7.982;2023-07-28T07:35:19;96237.59;;;19.32;80.50
47366;BME280;33105;47.964;7.982;2023-07-28T07:38:21;96238.91;;;19.35;79.60
47366;BME280;33105;47.964;7.982;2023-07-28T07:41:23;96251.94;;;19.34;78.66
47366;BME280;33105;47.964;7.982;2023-07-28T07:44:25;96251.59;;;19.45;80.63
47366;BME280;33105;47.964;7.982;2023-07-28T07:47:27;96251.72;;;19.65;79.68
47366;BME280;33105;47.964;7.982;2023-07-28T07:50:28;96253.53;;;19.91;76.18
47366;BME280;33105;47.964;7.982;2023-07-28T07:53:31;96252.88;;;19.94;75.17
47366;BME280;33105;47.964;7.982;2023-07-28T07:56:33;96252.38;;;20.00;76.56
47366;BME280;33105;47.964;7.982;2023-07-28T07:59:35;96251.09;;;19.89;77.27
47366;BME280;33105;47.964;7.982;2023-07-28T08:02:37;96254.31;;;19.70;78.44
47366;BME280;33105;47.964;7.982;2023-07-28T08:05:38;96255.53;;;19.82;77.48
47366;BME280;33105;47.964;7.982;2023-07-28T08:08:39;96247.78;;;19.66;76.58
47366;BME280;33105;47.964;7.982;2023-07-28T08:11:41;96258.03;;;19.75;77.04
47366;BME280;33105;47.964;7.982;2023-07-28T08:14:43;96265.69;;;19.78;77.08
47366;BME280;33105;47.964;7.982;2023-07-28T08:17:45;96264.78;;;19.94;75.38
47366;BME280;33105;47.964;7.982;2023-07-28T08:20:46;96269.66;;;19.59;77.31
47366;BME280;33105;47.964;7.982;2023-07-28T08:23:48;96272.91;;;19.61;76.44
47366;BME280;33105;47.964;7.982;2023-07-28T08:26:50;96271.09;;;19.65;78.46
47366;BME280;33105;47.964;7.982;2023-07-28T08:29:52;96279.25;;;19.70;75.09
47366;BME280;33105;47.964;7.982;2023-07-28T08:32:53;96286.44;;;20.01;75.68
47366;BME280;33105;47.964;7.982;2023-07-28T08:35:54;96279.06;;;20.05;76.09
47366;BME280;33105;47.964;7.982;2023-07-28T08:38:56;96276.88;;;20.19;73.94
47366;BME280;33105;47.964;7.982;2023-07-28T08:42:03;96291.91;;;20.18;75.51
47366;BME280;33105;47.964;7.982;2023-07-28T08:45:06;96281.13;;;20.17;74.40
47366;BME280;33105;47.964;7.982;2023-07-28T08:48:09;96280.53;;;20.41;74.78
47366;BME280;33105;47.964;7.982;2023-07-28T08:51:10;96280.81;;;20.48;72.41
47366;BME280;33105;47.964;7.982;2023-07-28T08:54:14;96290.34;;;20.38;72.91
47366;BME280;33105;47.964;7.982;2023-07-28T08:57:16;96281.16;;;20.67;70.78
47366;BME280;33105;47.964;7.982;2023-07-28T09:00:19;96283.97;;;20.79;72.21
47366;BME280;33105;47.964;7.982;2023-07-28T09:03:21;96286.09;;;20.82;71.45
47366;BME280;33105;47.964;7.982;2023-07-28T09:06:28;96293.69;;;20.52;72.58
47366;BME280;33105;47.964;7.982;2023-07-28T09:09:34;96303.84;;;20.69;71.81
47366;BME280;33105;47.964;7.982;2023-07-28T09:12:48;96292.78;;;20.81;70.83
47366;BME280;33105;47.964;7.982;2023-07-28T09:15:51;96301.06;;;20.69;70.64
47366;BME280;33105;47.964;7.982;2023-07-28T09:19:04;96293.03;;;20.76;70.21
47366;BME280;33105;47.964;7.982;2023-07-28T09:22:08;96287.84;;;20.87;70.82
47366;BME280;33105;47.964;7.982;2023-07-28T09:25:16;96292.44;;;20.83;72.93
47366;BME280;33105;47.964;7.982;2023-07-28T09:28:19;96287.72;;;20.62;71.89
47366;BME280;33105;47.964;7.982;2023-07-28T09:31:29;96290.50;;;20.83;70.77
47366;BME280;33105;47.964;7.982;2023-07-28T09:34:34;96293.06;;;20.88;71.47
47366;BME280;33105;47.964;7.982;2023-07-28T09:37:44;96293.25;;;20.83;72.41
47366;BME280;33105;47.964;7.982;2023-07-28T09:40:48;96285.34;;;20.94;71.85
47366;BME280;33105;47.964;7.982;2023-07-28T09:43:50;96287.25;;;21.02;74.46
47366;BME280;33105;47.964;7.982;2023-07-28T09:46:56;96288.59;;;20.96;73.96
47366;BME280;33105;47.964;7.982;2023-07-28T09:49:58;96284.84;;;21.13;71.38
47366;BME280;33105;47.964;7.982;2023-07-28T09:53:04;96277.75;;;21.24;71.00
47366;BME280;33105;47.964;7.982;2023-07-28T09:56:08;96279.91;;;21.18;68.84
47366;BME280;33105;47.964;7.982;2023-07-28T09:59:20;96268.94;;;21.22;72.88
47366;BME280;33105;47.964;7.982;2023-07-28T10:02:22;96262.50;;;22.24;65.89
47366;BME280;33105;47.964;7.982;2023-07-28T10:05:33;96274.09;;;22.14;66.51
47366;BME280;33105;47.964;7.982;2023-07-28T10:08:37;96272.59;;;22.04;67.34
47366;BME280;33105;47.964;7.982;2023-07-28T10:11:40;96278.34;;;21.75;66.67
47366;BME280;33105;47.964;7.982;2023-07-28T10:14:42;96277.88;;;21.72;67.45
47366;BME280;33105;47.964;7.982;2023-07-28T10:17:50;96275.06;;;21.60;69.59
47366;BME280;33105;47.964;7.982;2023-07-28T10:21:09;96275.59;;;21.99;68.67
47366;BME280;33105;47.964;7.982;2023-07-28T10:31:53;96280.00;;;22.36;67.36
47366;BME280;33105;47.964;7.982;2023-07-28T10:35:01;96284.16;;;22.30;67.79
47366;BME280;33105;47.964;7.982;2023-07-28T10:38:31;96290.22;;;22.20;66.09
47366;BME280;33105;47.964;7.982;2023-07-28T10:41:36;96286.28;;;22.21;65.50
47366;BME280;33105;47.964;7.982;2023-07-28T10:44:47;96282.53;;;22.42;64.21
47366;BME280;33105;47.964;7.982;2023-07-28T10:47:48;96297.03;;;21.98;66.09
47366;BME280;33105;47.964;7.982;2023-07-28T10:50:51;96293.91;;;22.00;67.75
47366;BME280;33105;47.964;7.982;2023-07-28T10:54:03;96301.69;;;22.06;65.33
47366;BME280;33105;47.964;7.982;2023-07-28T10:57:20;96291.63;;;22.26;66.27
47366;BME280;33105;47.964;7.982;2023-07-28T11:00:22;96288.94;;;22.18;66.48
47366;BME280;33105;47.964;7.982;2023-07-28T11:06:59;96287.38;;;22.57;63.88
47366;BME280;33105;47.964;7.982;2023-07-28T11:10:18;96289.63;;;22.39;64.21
47366;BME280;33105;47.964;7.982;2023-07-28T11:13:22;96285.91;;;22.35;65.23
47366;BME280;33105;47.964;7.982;2023-07-28T11:16:28;96277.69;;;22.38;65.54
47366;BME280;33105;47.964;7.982;2023-07-28T11:20:00;96280.56;;;22.30;65.62
47366;BME280;33105;47.964;7.982;2023-07-28T11:23:04;96276.31;;;22.20;66.86
47366;BME280;33105;47.964;7.982;2023-07-28T11:26:07;96271.41;;;21.93;68.61
47366;BME280;33105;47.964;7.982;2023-07-28T11:29:15;96273.03;;;22.06;67.67
47366;BME280;33105;47.964;7.982;2023-07-28T11:32:20;96273.28;;;22.25;63.72
47366;BME280;33105;47.964;7.982;2023-07-28T11:35:25;96274.78;;;22.35;66.95
47366;BME280;33105;47.964;7.982;2023-07-28T11:38:41;96272.59;;;22.04;69.55
47366;BME280;33105;47.964;7.982;2023-07-28T11:42:03;96274.53;;;22.28;66.27
47366;BME280;33105;47.964;7.982;2023-07-28T11:45:12;96268.31;;;22.19;64.43
47366;BME280;33105;47.964;7.982;2023-07-28T11:48:14;96260.19;;;22.14;67.47
47366;BME280;33105;47.964;7.982;2023-07-28T11:51:30;96268.06;;;22.24;69.96
47366;BME280;33105;47.964;7.982;2023-07-28T11:55:24;96265.34;;;22.64;67.57
47366;BME280;33105;47.964;7.982;2023-07-28T12:03:39;96257.41;;;22.90;68.91
47366;BME280;33105;47.964;7.982;2023-07-28T12:10:58;96255.69;;;22.73;65.29
47366;BME280;33105;47.964;7.982;2023-07-28T12:14:06;96263.69;;;22.75;65.04
47366;BME280;33105;47.964;7.982;2023-07-28T12:17:15;96259.34;;;22.37;67.47
47366;BME280;33105;47.964;7.982;2023-07-28T12:21:00;96274.72;;;22.84;67.10
47366;BME280;33105;47.964;7.982;2023-07-28T12:24:47;96276.44;;;22.88;64.13
47366;BME280;33105;47.964;7.982;2023-07-28T12:31:18;96275.94;;;22.34;65.87
47366;BME280;33105;47.964;7.982;2023-07-28T12:34:23;96281.03;;;22.32;66.28
47366;BME280;33105;47.964;7.982;2023-07-28T12:37:25;96287.06;;;22.34;64.82
47366;BME280;33105;47.964;7.982;2023-07-28T12:40:42;96280.13;;;22.16;65.28
47366;BME280;33105;47.964;7.982;2023-07-28T12:43:51;96288.03;;;22.01;64.53
47366;BME280;33105;47.964;7.982;2023-07-28T12:46:55;96292.28;;;21.99;63.47
47366;BME280;33105;47.964;7.982;2023-07-28T12:49:59;96290.41;;;21.91;63.61
47366;BME280;33105;47.964;7.982;2023-07-28T12:53:01;96278.25;;;21.95;68.73
47366;BME280;33105;47.964;7.982;2023-07-28T12:56:02;96285.41;;;21.84;66.86
47366;BME280;33105;47.964;7.982;2023-07-28T12:59:04;96300.81;;;21.69;70.13
47366;BME280;33105;47.964;7.982;2023-07-28T13:02:08;96303.41;;;21.54;70.68
47366;BME280;33105;47.964;7.982;2023-07-28T13:05:19;96312.56;;;21.54;72.12
47366;BME280;33105;47.964;7.982;2023-07-28T13:08:20;96318.13;;;21.21;74.30
47366;BME280;33105;47.964;7.982;2023-07-28T13:11:24;96318.25;;;21.04;75.54
47366;BME280;33105;47.964;7.982;2023-07-28T13:14:26;96345.69;;;21.05;74.40
47366;BME280;33105;47.964;7.982;2023-07-28T13:17:28;96355.44;;;20.32;78.05
47366;BME280;33105;47.964;7.982;2023-07-28T13:20:29;96349.28;;;19.88;80.51
47366;BME280;33105;47.964;7.982;2023-07-28T13:23:31;96347.38;;;19.72;85.68
47366;BME280;33105;47.964;7.982;2023-07-28T13:26:33;96348.03;;;19.77;85.56
47366;BME280;33105;47.964;7.982;2023-07-28T13:29:35;96339.38;;;19.79;90.24
47366;BME280;33105;47.964;7.982;2023-07-28T13:32:37;96325.38;;;19.66;89.08
47366;BME280;33105;47.964;7.982;2023-07-28T13:35:39;96339.00;;;19.89;90.04
47366;BME280;33105;47.964;7.982;2023-07-28T13:38:41;96340.38;;;19.74;90.02
47366;BME280;33105;47.964;7.982;2023-07-28T13:41:42;96333.88;;;19.61;91.34
47366;BME280;33105;47.964;7.982;2023-07-28T13:44:44;96318.69;;;19.67;93.69
47366;BME280;33105;47.964;7.982;2023-07-28T13:47:46;96317.06;;;19.66;93.13
47366;BME280;33105;47.964;7.982;2023-07-28T13:50:47;96323.22;;;19.81;92.05
47366;BME280;33105;47.964;7.982;2023-07-28T13:53:50;96331.06;;;19.79;92.08
47366;BME280;33105;47.964;7.982;2023-07-28T13:56:51;96326.91;;;20.02;93.76
47366;BME280;33105;47.964;7.982;2023-07-28T13:59:54;96323.25;;;20.10;91.11
47366;BME280;33105;47.964;7.982;2023-07-28T14:02:55;96324.34;;;19.88;91.91
47366;BME280;33105;47.964;7.982;2023-07-28T14:05:57;96314.06;;;19.89;91.68
47366;BME280;33105;47.964;7.982;2023-07-28T14:08:59;96313.56;;;19.87;92.05
47366;BME280;33105;47.964;7.982;2023-07-28T14:12:00;96308.97;;;20.58;91.54
47366;BME280;33105;47.964;7.982;2023-07-28T14:15:04;96297.41;;;20.77;91.21
47366;BME280;33105;47.964;7.982;2023-07-28T14:18:10;96297.28;;;20.53;92.10
47366;BME280;33105;47.964;7.982;2023-07-28T14:21:12;96294.41;;;20.41;88.59
47366;BME280;33105;47.964;7.982;2023-07-28T14:24:14;96294.91;;;20.63;90.81
47366;BME280;33105;47.964;7.982;2023-07-28T14:27:17;96285.22;;;20.90;86.20
47366;BME280;33105;47.964;7.982;2023-07-28T14:30:18;96300.94;;;20.65;89.38
47366;BME280;33105;47.964;7.982;2023-07-28T14:33:19;96302.63;;;20.79;92.13
47366;BME280;33105;47.964;7.982;2023-07-28T14:36:22;96307.28;;;21.08;89.10
47366;BME280;33105;47.964;7.982;2023-07-28T14:39:30;96289.63;;;21.45;82.48
47366;BME280;33105;47.964;7.982;2023-07-28T14:42:50;96302.38;;;21.58;90.47
47366;BME280;33105;47.964;7.982;2023-07-28T14:45:57;96312.94;;;21.65;86.13
47366;BME280;33105;47.964;7.982;2023-07-28T14:49:03;96319.38;;;21.78;80.75
47366;BME280;33105;47.964;7.982;2023-07-28T14:52:07;96305.16;;;21.58;75.36
47366;BME280;33105;47.964;7.982;2023-07-28T14:55:10;96310.13;;;21.98;80.24
47366;BME280;33105;47.964;7.982;2023-07-28T14:58:11;96317.44;;;21.57;77.48
47366;BME280;33105;47.964;7.982;2023-07-28T15:01:12;96330.41;;;21.53;80.65
47366;BME280;33105;47.964;7.982;2023-07-28T15:04:18;96334.94;;;21.25;85.39
47366;BME280;33105;47.964;7.982;2023-07-28T15:07:23;96340.88;;;21.15;81.87
47366;BME280;33105;47.964;7.982;2023-07-28T15:10:26;96344.00;;;20.92;83.76
47366;BME280;33105;47.964;7.982;2023-07-28T15:13:29;96337.63;;;20.71;80.63
47366;BME280;33105;47.964;7.982;2023-07-28T15:16:32;96340.75;;;20.69;86.09
47366;BME280;33105;47.964;7.982;2023-07-28T15:19:34;96339.75;;;20.45;88.24
47366;BME280;33105;47.964;7.982;2023-07-28T15:22:36;96335.53;;;20.30;88.19
47366;BME280;33105;47.964;7.982;2023-07-28T15:25:39;96341.81;;;20.18;88.28
47366;BME280;33105;47.964;7.982;2023-07-28T15:28:44;96332.81;;;19.92;88.98
47366;BME280;33105;47.964;7.982;2023-07-28T15:31:46;96325.78;;;19.94;92.17
47366;BME280;33105;47.964;7.982;2023-07-28T15:34:48;96326.28;;;19.88;92.83
47366;BME280;33105;47.964;7.982;2023-07-28T15:37:50;96336.53;;;19.96;95.63
47366;BME280;33105;47.964;7.982;2023-07-28T15:40:53;96326.81;;;20.19;96.47
47366;BME280;33105;47.964;7.982;2023-07-28T15:43:59;96321.47;;;20.05;100.00
47366;BME280;33105;47.964;7.982;2023-07-28T15:47:01;96307.53;;;19.93;100.00
47366;BME280;33105;47.964;7.982;2023-07-28T15:50:04;96308.13;;;19.61;100.00
47366;BME280;33105;47.964;7.982;2023-07-28T15:53:06;96313.72;;;19.52;100.00
47366;BME280;33105;47.964;7.982;2023-07-28T15:56:09;96317.75;;;19.37;100.00
47366;BME280;33105;47.964;7.982;2023-07-28T15:59:12;96311.13;;;19.13;100.00
47366;BME280;33105;47.964;7.982;2023-07-28T16:02:15;96322.69;;;19.23;100.00
47366;BME280;33105;47.964;7.982;2023-07-28T16:05:16;96353.81;;;18.94;100.00
47366;BME280;33105;47.964;7.982;2023-07-28T16:08:17;96363.06;;;18.81;100.00
47366;BME280;33105;47.964;7.982;2023-07-28T16:11:19;96368.09;;;18.62;100.00
47366;BME280;33105;47.964;7.982;2023-07-28T16:14:24;96366.66;;;18.82;100.00
47366;BME280;33105;47.964;7.982;2023-07-28T16:17:25;96362.91;;;19.12;100.00
47366;BME280;33105;47.964;7.982;2023-07-28T16:20:27;96359.03;;;19.22;100.00
47366;BME280;33105;47.964;7.982;2023-07-28T16:23:28;96357.72;;;19.02;100.00
47366;BME280;33105;47.964;7.982;2023-07-28T16:26:30;96356.56;;;18.86;100.00
47366;BME280;33105;47.964;7.982;2023-07-28T16:29:31;96359.81;;;18.88;100.00
47366;BME280;33105;47.964;7.982;2023-07-28T16:32:35;96366.16;;;18.71;100.00
47366;BME280;33105;47.964;7.982;2023-07-28T16:35:38;96358.34;;;18.73;100.00
47366;BME280;33105;47.964;7.982;2023-07-28T16:38:39;96362.09;;;18.86;100.00
47366;BME280;33105;47.964;7.982;2023-07-28T16:41:41;96345.50;;;18.86;100.00
47366;BME280;33105;47.964;7.982;2023-07-28T16:44:45;96351.50;;;18.62;100.00
47366;BME280;33105;47.964;7.982;2023-07-28T16:47:47;96353.16;;;18.80;100.00
47366;BME280;33105;47.964;7.982;2023-07-28T16:50:50;96344.50;;;18.64;100.00
47366;BME280;33105;47.964;7.982;2023-07-28T16:53:52;96340.22;;;18.50;100.00
47366;BME280;33105;47.964;7.982;2023-07-28T16:56:56;96341.03;;;18.50;100.00
47366;BME280;33105;47.964;7.982;2023-07-28T16:59:58;96359.09;;;18.48;100.00
47366;BME280;33105;47.964;7.982;2023-07-28T17:03:00;96364.03;;;18.59;100.00
47366;BME280;33105;47.964;7.982;2023-07-28T17:06:02;96364.03;;;18.68;100.00
47366;BME280;33105;47.964;7.982;2023-07-28T17:09:04;96365.19;;;18.67;100.00
47366;BME280;33105;47.964;7.982;2023-07-28T17:12:07;96370.72;;;18.67;100.00
47366;BME280;33105;47.964;7.982;2023-07-28T17:15:09;96371.38;;;18.81;100.00
47366;BME280;33105;47.964;7.982;2023-07-28T17:18:11;96365.03;;;18.72;100.00
47366;BME280;33105;47.964;7.982;2023-07-28T17:21:14;96366.31;;;18.83;100.00
47366;BME280;33105;47.964;7.982;2023-07-28T17:24:17;96379.69;;;18.90;100.00
47366;BME280;33105;47.964;7.982;2023-07-28T17:27:19;96376.25;;;18.67;100.00
47366;BME280;33105;47.964;7.982;2023-07-28T17:30:21;96371.47;;;18.59;100.00
47366;BME280;33105;47.964;7.982;2023-07-28T17:33:23;96363.38;;;18.62;100.00
47366;BME280;33105;47.964;7.982;2023-07-28T17:36:24;96367.66;;;18.77;100.00
47366;BME280;33105;47.964;7.982;2023-07-28T17:39:26;96372.84;;;18.70;100.00
47366;BME280;33105;47.964;7.982;2023-07-28T17:42:28;96367.78;;;18.72;100.00
47366;BME280;33105;47.964;7.982;2023-07-28T17:45:31;96363.41;;;18.71;100.00
47366;BME280;33105;47.964;7.982;2023-07-28T17:48:33;96363.56;;;18.66;100.00
47366;BME280;33105;47.964;7.982;2023-07-28T17:51:36;96365.66;;;18.60;100.00
47366;BME280;33105;47.964;7.982;2023-07-28T17:54:37;96365.50;;;18.65;100.00
47366;BME280;33105;47.964;7.982;2023-07-28T17:57:39;96357.03;;;18.62;100.00
47366;BME280;33105;47.964;7.982;2023-07-28T18:00:41;96362.72;;;18.65;100.00
47366;BME280;33105;47.964;7.982;2023-07-28T18:03:44;96356.38;;;18.65;100.00
47366;BME280;33105;47.964;7.982;2023-07-28T18:06:45;96353.81;;;18.77;100.00
47366;BME280;33105;47.964;7.982;2023-07-28T18:09:47;96353.97;;;18.72;100.00
47366;BME280;33105;47.964;7.982;2023-07-28T18:12:48;96352.00;;;18.73;100.00
47366;BME280;33105;47.964;7.982;2023-07-28T18:15:50;96348.44;;;18.72;100.00
47366;BME280;33105;47.964;7.982;2023-07-28T18:18:52;96354.13;;;18.67;100.00
47366;BME280;33105;47.964;7.982;2023-07-28T18:21:53;96354.94;;;18.67;100.00
47366;BME280;33105;47.964;7.982;2023-07-28T18:24:55;96350.69;;;18.61;100.00
47366;BME280;33105;47.964;7.982;2023-07-28T18:27:56;96360.22;;;18.47;100.00
47366;BME280;33105;47.964;7.982;2023-07-28T18:30:58;96350.63;;;18.44;100.00